• Join FlightAware (Why Join?)
  • Login
  • US Flag 
08:44AM EST


 

Airport Tracker/Info


-or-


 

Live Flight TrackerFlight Track Log ✈ SKW5516 ✈ 05-Jun-2013 ✈ KDEN - KFAT

Flight Track Log - Related Links

Times and Time Zones

All times are in EDT time to prevent confusion due to time zone crossing. See the SKW5516 flight status page for this flight to view local times or setup timezone preferences in your user account.

Time Position Orientation Groundspeed Altitude Reporting Facility
EDT Latitude Longitude Course Direction KTS MPH feet Rate Location/Type
03:35PM 39.7835 -105.2466 260° West  Level Estimated
03:36PM 39.7635 -105.3897 260° West  Level Estimated
03:37PM 39.7434 -105.5328 260° West  Level Estimated
03:38PM 39.7230 -105.6757 260° West  Level Estimated
03:39PM 39.7025 -105.8186 259° West  Level Estimated
03:40PM 39.6818 -105.9614 259° West  Level Estimated
03:41PM 39.6609 -106.1041 259° West  Level Estimated
03:42PM 39.6399 -106.2468 259° West  Level Estimated
03:43PM 39.6187 -106.3893 259° West  Level Estimated
03:44PM 39.5973 -106.5318 259° West  Level Estimated
03:45PM 39.5758 -106.6741 259° West  Level Estimated
03:46PM 39.5540 -106.8164 259° West  Level Estimated
03:47PM 39.5321 -106.9586 259° West  Level Estimated
03:48PM 39.5101 -107.1007 259° West  Level Estimated
03:49PM 39.4878 -107.2427 259° West  Level Estimated
03:50PM 39.4654 -107.3846 258° West  Level Estimated
03:51PM 39.4428 -107.5265 258° West  Level Estimated
03:52PM 39.4200 -107.6682 258° West  Level Estimated
03:53PM 39.3971 -107.8098 258° West  Level Estimated
03:54PM 39.3740 -107.9514 258° West  Level Estimated
03:55PM 39.3507 -108.0928 258° West  Level Estimated
03:56PM 39.3272 -108.2342 258° West  Level Estimated
03:57PM 39.3036 -108.3755 258° West  Level Estimated
03:58PM 39.2798 -108.5166 258° West  Level Estimated
03:59PM 39.2558 -108.6577 258° West  Level Estimated
04:00PM 39.2317 -108.7987 258° West  Level Estimated
04:01PM 39.2074 -108.9395 257° West  Level Estimated
04:02PM 39.1829 -109.0803 257° West  Level Estimated
04:03PM 39.1583 -109.2210 257° West  Level Estimated
04:04PM 39.1335 -109.3616 257° West  Level Estimated
04:05PM 39.1085 -109.5021 257° West  Level Estimated
04:06PM 39.0833 -109.6424 257° West  Level Estimated
04:07PM 39.0580 -109.7827 257° West  Level Estimated
04:08PM 39.0325 -109.9229 257° West  Level Estimated
04:09PM 39.0069 -110.0630 257° West  Level Estimated
04:10PM 38.9811 -110.2030 257° West  Level Estimated
04:11PM 38.9551 -110.3428 257° West  Level Estimated
04:12PM 38.9289 -110.4826 257° West  Level Estimated
04:13PM 38.9026 -110.6223 256° West  Level Estimated
04:14PM 38.8761 -110.7618 256° West  Level Estimated
04:15PM 38.8494 -110.9013 256° West  Level Estimated
04:16PM 38.8226 -111.0407 256° West  Level Estimated
04:17PM 38.7956 -111.1799 256° West  Level Estimated
04:18PM 38.7685 -111.3191 256° West  Level Estimated
04:19PM 38.7412 -111.4581 256° West  Level Estimated
04:20PM 38.7137 -111.5970 256° West  Level Estimated
04:21PM 38.6861 -111.7359 256° West  Level Estimated
04:22PM 38.6582 -111.8746 256° West  Level Estimated
04:23PM 38.6303 -112.0132 256° West  Level Estimated
04:24PM 38.6021 -112.1517 255° West  Level Estimated
04:25PM 38.5738 -112.2901 255° West  Level Estimated
04:26PM 38.5454 -112.4284 255° West  Level Estimated
04:27PM 38.5168 -112.5665 255° West  Level Estimated
04:28PM 38.4880 -112.7046 255° West  Level Estimated
04:29PM 38.4590 -112.8426 255° West  Level Estimated
04:30PM 38.4299 -112.9804 255° West  Level Estimated
04:31PM 38.4006 -113.1181 255° West  Level Estimated
04:32PM 38.3712 -113.2557 255° West  Level Estimated
04:33PM 38.3416 -113.3932 255° West  Level Estimated
04:34PM 38.3119 -113.5306 255° West  Level Estimated
04:35PM 38.2820 -113.6679 255° West  Level Estimated
04:36PM 38.2519 -113.8051 254° West  Level Estimated
04:37PM 38.2216 -113.9421 254° West  Level Estimated
04:38PM 38.1913 -114.0791 254° West  Level Estimated
04:39PM 38.1607 -114.2159 254° West  Level Estimated
04:40PM 38.1300 -114.3526 254° West  Level Estimated
04:41PM 38.0991 -114.4892 254° West  Level Estimated
04:42PM 38.0681 -114.6257 254° West  Level Estimated
04:43PM 38.0369 -114.7620 254° West  Level Estimated
04:44PM 38.0056 -114.8983 254° West  Level Estimated
04:45PM 37.9741 -115.0344 254° West  Level Estimated
04:46PM 37.9424 -115.1704 254° West  Level Estimated
04:47PM 37.9106 -115.3063 254° West  Level Estimated
04:48PM 37.8787 -115.4421 253° West  Level Estimated
04:49PM 37.8465 -115.5778 253° West  Level Estimated
04:50PM 37.8143 -115.7133 253° West  Level Estimated
04:51PM 37.7818 -115.8487 253° West  Level Estimated
04:52PM 37.7492 -115.9840 253° West  Level Estimated
04:53PM 37.7165 -116.1192 253° West  Level Estimated
04:54PM 37.6836 -116.2543 253° West  Level Estimated
04:55PM 37.6505 -116.3892 253° West  Level Estimated
04:56PM 37.6173 -116.5240 253° West  Level Estimated
04:57PM 37.5840 -116.6587 253° West  Level Estimated
04:58PM 37.5505 -116.7933 253° West  Level Estimated
04:59PM 37.5168 -116.9278 253° West  Level Estimated
05:00PM 37.4830 -117.0621 252° West  Level Estimated
05:01PM 37.4490 -117.1963 252° West  Level Estimated
05:02PM 37.4149 -117.3304 252° West  Level Estimated
05:03PM 37.3806 -117.4644 252° West  Level Estimated
05:04PM 37.3462 -117.5983 252° West  Level Estimated
05:05PM 37.3116 -117.7320 252° West  Level Estimated
05:06PM 37.2769 -117.8656 252° West  Level Estimated
05:07PM 37.2421 -117.9991 252° West  Level Estimated
05:08PM 37.2070 -118.1324 252° West  Level Estimated
05:09PM 37.1719 -118.2657 252° West  Level Estimated
05:10PM 37.1365 -118.3988 252° West  Level Estimated
05:11PM 37.1011 -118.5318 252° West  Level Estimated
05:12PM 37.0654 -118.6646 251° West  Level Estimated
05:13PM 37.0297 -118.7973 251° West  Level Estimated
05:14PM 36.9938 -118.9299 251° West  Level Estimated
05:15PM 36.9577 -119.0624 251° West  Level Estimated
05:16PM 36.9215 -119.1948 251° West  Level Estimated
05:17PM 36.8852 -119.3270 251° West  Level Estimated
05:18PM 36.8487 -119.4591 251° West  Level Estimated
05:19PM 36.8120 -119.5911 251° West  Level Estimated
05:20PM 36.7764 -119.7187 251° West  Level Estimated
05:21PM 36.7764 -119.7187 148° Southeast  Level Estimated
05:22PM 36.7764 -119.7187 148° Southeast  Level Estimated
05:23PM 36.7764 -119.7187 148° Southeast  Level Estimated
05:24PM 36.7764 -119.7187 148° Southeast  Level Estimated
05:25PM 36.7764 -119.7187 148° Southeast  Level Estimated
05:26PM 36.7764 -119.7187 148° Southeast  Level Estimated